航空気象通報

ウインドサーファーのための航空気象通報による風予報です。

8/1の航空気象通報(国内)

2008年07月31日 20時17分16秒 | TAF
羽田空港
TAF RJTT 310838Z 311812 08006KT 9999 FEW020 SCT030
BECMG 0306 18010KT
日本時間1日03-12時:080度から6ノットの風
12-15時:風が変化
15-21時:180度から10ノットの風


那覇空港
TAF ROAH 310838Z 311812 08007KT 9999 SCT020
BECMG 0003 11008KT
日本時間1日03-09時:080度から7ノットの風
09-12時:風が変化
12-21時:110度から8ノットの風
コメント

7/30-31の航空気象通報(国内、海外)

2008年07月30日 21時34分56秒 | TAF
羽田空港
TAF RJTT 300840Z 301812 05008KT 9999 FEW015 BKN030
BECMG 0003 10008KT
BECMG 0609 16010KT
日本時間31日03-09時:050度から8ノットの風
09-12時:風が変化
12-15時:100度から8ノットの風
15-18時:風が変化
18-21時:160度から10ノットの風


那覇空港
TAF ROAH 300840Z 301812 11007KT 9999 SCT020
日本時間31日03-21時:110度から7ノットの風


マウイのカフルイ空港
PHOG 301125Z 301212 05011KT P6SM SCT050
FM2000 04018G25KT P6SM FEW050
FM0800 05008KT P6SM SCT050
ハワイ時間30日02-10時:050度から11ノットの風
10-22時:040度から18ノット、突風25ノット
22時-31日02時:050度から8ノットの風


サイパン空港
PGSN 301120Z 301212 11007KT P6SM VCSH SCT020CB BKN120
マリアナ時間30日22時-31日22時:110度から7ノットの風

コメント

7/29-30の航空気象通報(国内、海外)

2008年07月29日 21時38分10秒 | TAF
羽田空港
TAF RJTT 290850Z 291812 05010KT 9999 FEW020 SCT050
BECMG 0003 08012KT
日本時間30日03-09時:050度から10ノットの風
09-12時:風が変化
12-21時:080度から12ノットの風


那覇空港
TAF ROAH 290843Z 291812 15012KT 9999 SCT020
日本時間30日03-21時:150度から12ノットの風


マウイのカフルイ空港
PHOG 291120Z 291212 04013KT P6SM BKN060
FM1900 04018G28KT P6SM SCT060
FM0600 05012KT P6SM SCT060
ハワイ時間29日02-09時:040度から13ノットの風

09-20時:040度から18ノット、突風28ノット
20時-30日02時:050度から12ノットの風


サイパン空港
PGSN 291122Z 291212 14007KT P6SM VCSH SCT015CB BKN120
マリアナ時間29日22時-30日22時:140度から7ノットの風
コメント

7/27-28の航空気象通報(国内、海外)

2008年07月27日 19時58分54秒 | TAF
羽田空港
TAF RJTT 270850Z 271812 04005KT 8000 FEW010 BKN020
TEMPO 1824 4000 BR FEW005 BKN008
BECMG 0003 14010KT
TEMPO 0609 4000 TSRA BR SCT015 BKN020 FEW020CB
日本時間28日03-09時:040度から5ノットの風
09-12時:風が変化
12-21時:140度から10ノットの風

但し、15-18時:一時、

那覇空港
TAF ROAH 270842Z 271812 15020KT 9999 FEW015 SCT025
日本時間27日03-21時:150度から20ノットの風


マウイのカフルイ空港
TAFPA TAF AMD PHOG 271401Z 271412 05010KT P6SM SCT050
FM2000 04018G28KT P6SM VCSH SCT050
FM0800 05012KT P6SM SCT050
ハワイ時間27日04-10時:050度から10ノットの風
10-22時:040度から18ノット、突風28ノット
22時-28日02時:050度から12ノットの風


サイパン空港
PGSN 271130Z 271212 05008KT P6SM VCSH SCT020 BKN080
TEMPO 1418 -SHRA SCT018CB BKN040
マリアナ時間27日22時-28日22時:050度から8ノットの風
、但し、27日00-04時:一時、
コメント

7/26-27の航空気象通報(国内、海外)

2008年07月26日 21時35分54秒 | TAF
羽田空港
TAF RJTT 260846Z 261812 08006KT 8000 FEW020 SCT030
TEMPO 1824 3000 BR
BECMG 0306 16010KT
日本時間27日03-12時:080度から6ノットの風
12-15時:風が変化
15-21時:160度から10ノットの風


那覇空港
TAF ROAH 260839Z 261812 13018KT 9999 FEW015 SCT020
日本時間27日03-21時:130度から18ノットの風


マウイのカフルイ空港
PHOG 261132Z 261212 04012KT P6SM SCT060
FM1900 05018G25KT P6SM SCT060
FM0600 04010KT P6SM FEW060
ハワイ時間26日02-09時:040度から12ノットの風
09-20時:050度から18ノット、突風25ノット
20時-27日02時:040度から10ノットの風


サイパン空港
PGSN 261120Z 261212 13005KT P6SM VCSH FEW020 BKN110
マリアナ時間26日22時-27日22時:130度から5ノットの風
コメント